Time;durP1;ratioP1;P1;durP2;ratioP2;P2;SDS_P1;SDS_P2;PMS_P1;PMS_P2;Temp;Humidity;BMP_temperature;BMP_pressure;BME280_temperature;BME280_humidity;BME280_pressure;Samples;Min_cycle;Max_cycle;Signal;HPM_P1;HPM_P2
2023/12/12 00:02:14;;;;;;;;;;;;;;;;;;5032634;28;19940;-67
2023/12/12 00:04:39;;;;;;;;;;;;;;;;;;5002296;28;19922;-67
2023/12/12 00:07:05;;;;;;;;;;;;;;;;;;5034826;28;19921;-69
2023/12/12 00:09:30;;;;;;;;;;;;;;;;;;5015217;28;19925;-68
2023/12/12 00:11:55;;;;;;;;;;;;;;;;;;5017036;28;19925;-69
2023/12/12 00:14:20;;;;;;;;;;;;;;;;;;5000593;28;19917;-68
2023/12/12 00:16:48;;;;;;;;;;;;;;;;;;4990994;28;19917;-68
2023/12/12 00:19:16;;;;;;;;;;;;;;;;;;5014818;28;19928;-71
2023/12/12 00:21:41;;;;;;;;;;;;;;;;;;4999324;28;20141;-68
2023/12/12 00:24:07;;;;;;;;;;;;;;;;;;5015986;28;20020;-68
2023/12/12 00:26:32;;;;;;;;;;;;;;;;;;5016799;28;20194;-68
2023/12/12 00:28:57;;;;;;;;;;;;;;;;;;5015877;28;20092;-68
2023/12/12 00:31:28;;;;;;;;;;;;;;;;;;4999966;28;19951;-69
2023/12/12 00:33:58;;;;;;;;;;;;;;;;;;5003798;28;19971;-68
2023/12/12 00:36:26;;;;;;;;;;;;;;;;;;5003686;28;20369;-69
2023/12/12 00:38:52;;;;;;;;;;;;;;;;;;5006803;28;20492;-69
2023/12/12 00:41:17;;;;;;;;;;;;;;;;;;5020232;28;19917;-69
2023/12/12 00:43:43;;;;;;;;;;;;;;;;;;5019926;28;19921;-69
2023/12/12 00:46:10;;;;;;;;;;;;;;;;;;5019386;28;19951;-69
2023/12/12 00:48:35;;;;;;;;;;;;;;;;;;5038299;28;19922;-68
2023/12/12 00:51:00;;;;;;;;;;;;;;;;;;5020273;28;20250;-69
2023/12/12 00:53:25;;;;;;;;;;;;;;;;;;5003347;28;20393;-69
2023/12/12 00:55:56;;;;;;;;;;;;;;;;;;5005393;28;19925;-69
2023/12/12 00:58:21;;;;;;;;;;;;;;;;;;5007399;28;19975;-69
2023/12/12 01:00:46;;;;;;;;;;;;;;;;;;5019352;28;20645;-69
2023/12/12 01:03:11;;;;;;;;;;;;;;;;;;5005629;28;20385;-69
2023/12/12 01:05:37;;;;;;;;;;;;;;;;;;5003136;28;19925;-69
2023/12/12 01:08:04;;;;;;;;;;;;;;;;;;5019457;28;19975;-68
2023/12/12 01:10:32;;;;;;;;;;;;;;;;;;5020747;28;20360;-69
2023/12/12 01:13:00;;;;;;;;;;;;;;;;;;5006499;28;19931;-69
2023/12/12 01:15:28;;;;;;;;;;;;;;;;;;5036611;28;20365;-69
2023/12/12 01:17:53;;;;;;;;;;;;;;;;;;5004447;28;20031;-69
2023/12/12 01:20:19;;;;;;;;;;;;;;;;;;5004774;28;19929;-69
2023/12/12 01:22:46;;;;;;;;;;;;;;;;;;5018889;28;19917;-68
2023/12/12 01:25:11;;;;;;;;;;;;;;;;;;5018360;28;19948;-68
2023/12/12 01:27:37;;;;;;;;;;;;;;;;;;5019007;28;19921;-68
2023/12/12 01:30:04;;;;;;;;;;;;;;;;;;5019218;28;19918;-68
2023/12/12 01:32:33;;;;;;;;;;;;;;;;;;5019762;28;19972;-69
2023/12/12 01:34:59;;;;;;;;;;;;;;;;;;5033425;28;20413;-69
2023/12/12 01:37:24;;;;;;;;;;;;;;;;;;5019733;28;19952;-69
2023/12/12 01:39:52;;;;;;;;;;;;;;;;;;5020133;28;19924;-68
2023/12/12 01:42:17;;;;;;;;;;;;;;;;;;5019800;28;21425;-69
2023/12/12 01:44:42;;;;;;;;;;;;;;;;;;5003974;28;20299;-69
2023/12/12 01:47:08;;;;;;;;;;;;;;;;;;5001441;28;19967;-69
2023/12/12 01:49:36;;;;;;;;;;;;;;;;;;5020943;28;19964;-69
2023/12/12 01:52:04;;;;;;;;;;;;;;;;;;5002650;28;20956;-69
2023/12/12 01:54:32;;;;;;;;;;;;;;;;;;5004037;28;19928;-69
2023/12/12 01:57:02;;;;;;;;;;;;;;;;;;5005678;28;19924;-70
2023/12/12 01:59:30;;;;;;;;;;;;;;;;;;5004251;28;20335;-69
2023/12/12 02:01:55;;;;;;;;;;;;;;;;;;5002375;28;19964;-68
2023/12/12 02:04:23;;;;;;;;;;;;;;;;;;5002750;28;20043;-69
2023/12/12 02:06:51;;;;;;;;;;;;;;;;;;5020749;28;19925;-69
2023/12/12 02:09:19;;;;;;;;;;;;;;;;;;4999700;28;19961;-69
2023/12/12 02:11:44;;;;;;;;;;;;;;;;;;5005855;28;19921;-69
2023/12/12 02:14:10;;;;;;;;;;;;;;;;;;5002783;28;20488;-69
2023/12/12 02:16:38;;;;;;;;;;;;;;;;;;5018075;28;20003;-69
2023/12/12 02:19:08;;;;;;;;;;;;;;;;;;5018158;28;19917;-69
2023/12/12 02:21:37;;;;;;;;;;;;;;;;;;5019988;28;20327;-68
2023/12/12 02:24:02;;;;;;;;;;;;;;;;;;4998956;28;20370;-69
2023/12/12 02:26:30;;;;;;;;;;;;;;;;;;5018636;28;19921;-69
2023/12/12 02:28:58;;;;;;;;;;;;;;;;;;5000293;28;19928;-70
2023/12/12 02:31:23;;;;;;;;;;;;;;;;;;5019220;28;19917;-69
2023/12/12 02:33:51;;;;;;;;;;;;;;;;;;5018159;28;21461;-69
2023/12/12 02:36:20;;;;;;;;;;;;;;;;;;5018172;28;19920;-69
2023/12/12 02:38:46;;;;;;;;;;;;;;;;;;5035552;28;19928;-69
2023/12/12 02:41:11;;;;;;;;;;;;;;;;;;5000227;28;19917;-69
2023/12/12 02:43:36;;;;;;;;;;;;;;;;;;5018216;28;19920;-69
2023/12/12 02:46:01;;;;;;;;;;;;;;;;;;5002295;28;19917;-70
2023/12/12 02:48:29;;;;;;;;;;;;;;;;;;5032783;28;19932;-70
2023/12/12 02:51:00;;;;;;;;;;;;;;;;;;4998271;28;19924;-70
2023/12/12 02:53:28;;;;;;;;;;;;;;;;;;5003091;28;19971;-69
2023/12/12 02:55:58;;;;;;;;;;;;;;;;;;5000626;28;19931;-69
2023/12/12 02:58:23;;;;;;;;;;;;;;;;;;5001841;28;20329;-69
2023/12/12 03:00:50;;;;;;;;;;;;;;;;;;5000257;28;19918;-69
2023/12/12 03:03:18;;;;;;;;;;;;;;;;;;5016097;28;19925;-70
2023/12/12 03:05:43;;;;;;;;;;;;;;;;;;5002435;28;19960;-69
2023/12/12 03:08:09;;;;;;;;;;;;;;;;;;5016379;28;20463;-69
2023/12/12 03:10:34;;;;;;;;;;;;;;;;;;5017283;28;19913;-70
2023/12/12 03:12:59;;;;;;;;;;;;;;;;;;5001260;28;19917;-69
2023/12/12 03:15:24;;;;;;;;;;;;;;;;;;5007647;28;20645;-70
2023/12/12 03:17:52;;;;;;;;;;;;;;;;;;5018404;28;19917;-69
2023/12/12 03:20:18;;;;;;;;;;;;;;;;;;5002178;28;19921;-69
2023/12/12 03:22:46;;;;;;;;;;;;;;;;;;5000729;28;19928;-69
2023/12/12 03:25:14;;;;;;;;;;;;;;;;;;5014222;28;19967;-70
2023/12/12 03:27:42;;;;;;;;;;;;;;;;;;5017748;28;19913;-69
2023/12/12 03:30:07;;;;;;;;;;;;;;;;;;5000829;28;19928;-69
2023/12/12 03:32:32;;;;;;;;;;;;;;;;;;4999069;28;19979;-68
2023/12/12 03:34:57;;;;;;;;;;;;;;;;;;5000599;28;20396;-69
2023/12/12 03:37:25;;;;;;;;;;;;;;;;;;4999682;28;19925;-68
2023/12/12 03:39:53;;;;;;;;;;;;;;;;;;5014543;28;19925;-70
2023/12/12 03:42:19;;;;;;;;;;;;;;;;;;5000783;28;19940;-70
2023/12/12 03:44:47;;;;;;;;;;;;;;;;;;4997972;28;19940;-69
2023/12/12 03:47:15;;;;;;;;;;;;;;;;;;5015910;28;19933;-69
2023/12/12 03:49:40;;;;;;;;;;;;;;;;;;5000724;28;19948;-70
2023/12/12 03:52:08;;;;;;;;;;;;;;;;;;5000802;28;19951;-70
2023/12/12 03:54:33;;;;;;;;;;;;;;;;;;4998522;28;19921;-70
2023/12/12 03:57:04;;;;;;;;;;;;;;;;;;5016293;28;19933;-70
2023/12/12 03:59:29;;;;;;;;;;;;;;;;;;5001200;28;19918;-69
2023/12/12 04:01:54;;;;;;;;;;;;;;;;;;5015442;28;19921;-69
2023/12/12 04:04:22;;;;;;;;;;;;;;;;;;4997774;28;19984;-69
2023/12/12 04:06:47;;;;;;;;;;;;;;;;;;5016110;28;19917;-70
2023/12/12 04:09:13;;;;;;;;;;;;;;;;;;5017791;28;19921;-70
2023/12/12 04:11:38;;;;;;;;;;;;;;;;;;5015824;28;20384;-68
2023/12/12 04:14:03;;;;;;;;;;;;;;;;;;5000128;28;20328;-70
2023/12/12 04:16:28;;;;;;;;;;;;;;;;;;5016993;28;20308;-69
2023/12/12 04:18:54;;;;;;;;;;;;;;;;;;4998797;28;19960;-69
2023/12/12 04:21:21;;;;;;;;;;;;;;;;;;5002510;28;19944;-69
2023/12/12 04:23:49;;;;;;;;;;;;;;;;;;5001001;28;19924;-69
2023/12/12 04:26:15;;;;;;;;;;;;;;;;;;4995478;28;20542;-68
2023/12/12 04:28:40;;;;;;;;;;;;;;;;;;5016005;28;19928;-69
2023/12/12 04:31:08;;;;;;;;;;;;;;;;;;4999661;28;19921;-69
2023/12/12 04:33:36;;;;;;;;;;;;;;;;;;5015105;28;19924;-69
2023/12/12 04:36:02;;;;;;;;;;;;;;;;;;5014282;28;19924;-69
2023/12/12 04:38:30;;;;;;;;;;;;;;;;;;4999907;28;19917;-69
2023/12/12 04:40:57;;;;;;;;;;;;;;;;;;4984586;28;19918;-69
2023/12/12 04:43:26;;;;;;;;;;;;;;;;;;5016976;28;20284;-69
2023/12/12 04:45:54;;;;;;;;;;;;;;;;;;5000896;28;19924;-69
2023/12/12 04:48:19;;;;;;;;;;;;;;;;;;5013961;28;20745;-69
2023/12/12 04:50:47;;;;;;;;;;;;;;;;;;4996186;28;19921;-69
2023/12/12 04:53:15;;;;;;;;;;;;;;;;;;5015837;28;20471;-69
2023/12/12 04:55:41;;;;;;;;;;;;;;;;;;5030749;28;19921;-69
2023/12/12 04:58:08;;;;;;;;;;;;;;;;;;4996030;28;19917;-68
2023/12/12 05:00:34;;;;;;;;;;;;;;;;;;4997381;28;20751;-69
2023/12/12 05:03:02;;;;;;;;;;;;;;;;;;5013219;28;20022;-69
2023/12/12 05:05:27;;;;;;;;;;;;;;;;;;4995512;28;20480;-69
2023/12/12 05:07:55;;;;;;;;;;;;;;;;;;5014393;28;20015;-70
2023/12/12 05:10:22;;;;;;;;;;;;;;;;;;5014092;28;20436;-69
2023/12/12 05:12:51;;;;;;;;;;;;;;;;;;5002276;28;19928;-69
2023/12/12 05:15:16;;;;;;;;;;;;;;;;;;4997938;28;19913;-70
2023/12/12 05:17:41;;;;;;;;;;;;;;;;;;5013781;28;19993;-70
2023/12/12 05:20:12;;;;;;;;;;;;;;;;;;5017481;28;20296;-70
2023/12/12 05:22:40;;;;;;;;;;;;;;;;;;5001934;28;20008;-70
2023/12/12 05:25:08;;;;;;;;;;;;;;;;;;5003461;28;20365;-70
2023/12/12 05:27:36;;;;;;;;;;;;;;;;;;5003135;28;20372;-69
2023/12/12 05:30:03;;;;;;;;;;;;;;;;;;5035710;28;19916;-68
2023/12/12 05:32:31;;;;;;;;;;;;;;;;;;4998640;28;19940;-70
2023/12/12 05:34:56;;;;;;;;;;;;;;;;;;5035234;28;20004;-69
2023/12/12 05:37:24;;;;;;;;;;;;;;;;;;5013952;28;20012;-69
2023/12/12 05:39:49;;;;;;;;;;;;;;;;;;5018038;28;20246;-68
2023/12/12 05:42:15;;;;;;;;;;;;;;;;;;5019565;28;19921;-69
2023/12/12 05:44:43;;;;;;;;;;;;;;;;;;5002685;28;19964;-69
2023/12/12 05:47:09;;;;;;;;;;;;;;;;;;5018908;28;20028;-69
2023/12/12 05:49:37;;;;;;;;;;;;;;;;;;5000404;28;19933;-69
2023/12/12 05:52:04;;;;;;;;;;;;;;;;;;5000299;28;19921;-69
2023/12/12 05:54:29;;;;;;;;;;;;;;;;;;5001625;28;19921;-69
2023/12/12 05:56:54;;;;;;;;;;;;;;;;;;5001879;28;21802;-69
2023/12/12 05:59:22;;;;;;;;;;;;;;;;;;5016906;28;20154;-69
2023/12/12 06:01:47;;;;;;;;;;;;;;;;;;5003401;28;20307;-70
2023/12/12 06:04:12;;;;;;;;;;;;;;;;;;5004417;28;19947;-68
2023/12/12 06:06:38;;;;;;;;;;;;;;;;;;5034729;28;19984;-70
2023/12/12 06:09:03;;;;;;;;;;;;;;;;;;5001376;28;19932;-69
2023/12/12 06:11:28;;;;;;;;;;;;;;;;;;5003901;28;19929;-69
2023/12/12 06:13:55;;;;;;;;;;;;;;;;;;5010043;28;20016;-70
2023/12/12 06:16:23;;;;;;;;;;;;;;;;;;5016836;28;19921;-69
2023/12/12 06:18:51;;;;;;;;;;;;;;;;;;5003860;28;19965;-69
2023/12/12 06:21:17;;;;;;;;;;;;;;;;;;5018160;28;20020;-70
2023/12/12 06:23:45;;;;;;;;;;;;;;;;;;5019518;28;19917;-69
2023/12/12 06:26:10;;;;;;;;;;;;;;;;;;4996009;28;20540;-69
2023/12/12 06:28:38;;;;;;;;;;;;;;;;;;4998060;28;19917;-69
2023/12/12 06:31:03;;;;;;;;;;;;;;;;;;5016697;28;20119;-69
2023/12/12 06:33:31;;;;;;;;;;;;;;;;;;5000485;28;19922;-70
2023/12/12 06:35:59;;;;;;;;;;;;;;;;;;5004525;28;19979;-69
2023/12/12 06:38:24;;;;;;;;;;;;;;;;;;5002144;28;20568;-69
2023/12/12 06:40:49;;;;;;;;;;;;;;;;;;5014447;28;19989;-69
2023/12/12 06:43:20;;;;;;;;;;;;;;;;;;5017049;28;20414;-70
2023/12/12 06:45:48;;;;;;;;;;;;;;;;;;5002995;28;19925;-69
2023/12/12 06:48:17;;;;;;;;;;;;;;;;;;5016503;28;20071;-70
2023/12/12 06:50:42;;;;;;;;;;;;;;;;;;5002227;28;19924;-69
2023/12/12 06:53:08;;;;;;;;;;;;;;;;;;5001627;28;19921;-69
2023/12/12 06:55:33;;;;;;;;;;;;;;;;;;5016634;28;19917;-69
2023/12/12 06:58:03;;;;;;;;;;;;;;;;;;5017067;28;19921;-68
2023/12/12 07:00:31;;;;;;;;;;;;;;;;;;5018005;28;20062;-69
2023/12/12 07:02:56;;;;;;;;;;;;;;;;;;5000445;28;20380;-70
2023/12/12 07:05:24;;;;;;;;;;;;;;;;;;5000703;28;20358;-70
2023/12/12 07:07:50;;;;;;;;;;;;;;;;;;5017562;28;19928;-69
2023/12/12 07:10:16;;;;;;;;;;;;;;;;;;5015675;28;20764;-70
2023/12/12 07:12:41;;;;;;;;;;;;;;;;;;5034199;28;20330;-70
2023/12/12 07:15:09;;;;;;;;;;;;;;;;;;5017367;28;19914;-69
2023/12/12 07:17:34;;;;;;;;;;;;;;;;;;5000578;28;19995;-68
2023/12/12 07:20:05;;;;;;;;;;;;;;;;;;5016932;28;20400;-69
2023/12/12 07:22:30;;;;;;;;;;;;;;;;;;5001711;28;20288;-69
2023/12/12 07:24:56;;;;;;;;;;;;;;;;;;5017980;28;19928;-69
2023/12/12 07:27:21;;;;;;;;;;;;;;;;;;5017685;28;19921;-69
2023/12/12 07:29:49;;;;;;;;;;;;;;;;;;5000125;28;20383;-68
2023/12/12 07:32:16;;;;;;;;;;;;;;;;;;5006169;28;19921;-69
2023/12/12 07:34:42;;;;;;;;;;;;;;;;;;4999760;28;19971;-69
2023/12/12 07:37:10;;;;;;;;;;;;;;;;;;5016648;28;20430;-69
2023/12/12 07:39:37;;;;;;;;;;;;;;;;;;4999754;28;20122;-70
2023/12/12 07:42:03;;;;;;;;;;;;;;;;;;5015478;28;20413;-70
2023/12/12 07:44:31;;;;;;;;;;;;;;;;;;5017649;28;20015;-69
2023/12/12 07:47:01;;;;;;;;;;;;;;;;;;5002345;28;19921;-69
2023/12/12 07:49:26;;;;;;;;;;;;;;;;;;5000289;28;19975;-69
2023/12/12 07:51:51;;;;;;;;;;;;;;;;;;5016730;28;19921;-69
2023/12/12 07:54:17;;;;;;;;;;;;;;;;;;5004200;28;20347;-70
2023/12/12 07:56:42;;;;;;;;;;;;;;;;;;5000880;28;20019;-70
2023/12/12 07:59:10;;;;;;;;;;;;;;;;;;5002588;28;19972;-69
2023/12/12 08:01:36;;;;;;;;;;;;;;;;;;4999500;28;20367;-70
2023/12/12 08:04:04;;;;;;;;;;;;;;;;;;5016576;28;19917;-69
2023/12/12 08:06:29;;;;;;;;;;;;;;;;;;5015540;28;19925;-69
2023/12/12 08:08:58;;;;;;;;;;;;;;;;;;5016133;28;19939;-69
2023/12/12 08:11:27;;;;;;;;;;;;;;;;;;5000058;28;19921;-69
2023/12/12 08:13:52;;;;;;;;;;;;;;;;;;5017704;28;20717;-69
2023/12/12 08:16:17;;;;;;;;;;;;;;;;;;5001937;28;19917;-69
2023/12/12 08:18:47;;;;;;;;;;;;;;;;;;5000417;28;19922;-69
2023/12/12 08:21:13;;;;;;;;;;;;;;;;;;5001697;28;19918;-69
2023/12/12 08:23:42;;;;;;;;;;;;;;;;;;5000099;28;20314;-69
2023/12/12 08:26:07;;;;;;;;;;;;;;;;;;5001303;28;19921;-69
2023/12/12 08:28:33;;;;;;;;;;;;;;;;;;5000486;28;19921;-70
2023/12/12 08:30:58;;;;;;;;;;;;;;;;;;4998165;28;19921;-70
2023/12/12 08:33:23;;;;;;;;;;;;;;;;;;5017048;28;20549;-69
2023/12/12 08:35:49;;;;;;;;;;;;;;;;;;5016312;28;19917;-71
2023/12/12 08:38:14;;;;;;;;;;;;;;;;;;5001922;28;19917;-70
2023/12/12 08:40:39;;;;;;;;;;;;;;;;;;4999871;28;19917;-69
2023/12/12 08:43:07;;;;;;;;;;;;;;;;;;5015483;28;20018;-69
2023/12/12 08:45:38;;;;;;;;;;;;;;;;;;5001711;28;19926;-70
2023/12/12 08:48:03;;;;;;;;;;;;;;;;;;5014574;28;20299;-70
2023/12/12 08:50:28;;;;;;;;;;;;;;;;;;4999848;28;19918;-70
2023/12/12 08:52:57;;;;;;;;;;;;;;;;;;5002902;28;19921;-70
2023/12/12 08:55:26;;;;;;;;;;;;;;;;;;5034732;28;20110;-70
2023/12/12 08:57:51;;;;;;;;;;;;;;;;;;5006026;28;19917;-71
2023/12/12 09:00:17;;;;;;;;;;;;;;;;;;5004317;28;19924;-70
2023/12/12 09:02:42;;;;;;;;;;;;;;;;;;5020000;28;19997;-70
2023/12/12 09:05:08;;;;;;;;;;;;;;;;;;5001079;28;20017;-70
2023/12/12 09:07:34;;;;;;;;;;;;;;;;;;5003317;28;19933;-69
2023/12/12 09:10:02;;;;;;;;;;;;;;;;;;5003803;28;19937;-70
2023/12/12 09:12:27;;;;;;;;;;;;;;;;;;5020215;28;19917;-70
2023/12/12 09:14:52;;;;;;;;;;;;;;;;;;5020194;28;20435;-70
2023/12/12 09:17:21;;;;;;;;;;;;;;;;;;5018792;28;20505;-69
2023/12/12 09:19:46;;;;;;;;;;;;;;;;;;5019188;28;19917;-70
2023/12/12 09:22:11;;;;;;;;;;;;;;;;;;5019903;28;20359;-69
2023/12/12 09:24:37;;;;;;;;;;;;;;;;;;5019081;28;19975;-69
2023/12/12 09:27:02;;;;;;;;;;;;;;;;;;5003015;28;19917;-69
2023/12/12 09:29:30;;;;;;;;;;;;;;;;;;5018229;28;20024;-70
2023/12/12 09:31:56;;;;;;;;;;;;;;;;;;5018015;28;19917;-70
2023/12/12 09:37:06;;;;;;;;;;;;;;;;;;5004760;28;19921;-70
2023/12/12 09:39:31;;;;;;;;;;;;;;;;;;5019746;28;19917;-70
2023/12/12 09:44:53;;;;;;;;;;;;;;;;;;5004682;28;19967;-69
2023/12/12 09:47:19;;;;;;;;;;;;;;;;;;5004027;28;19917;-69
2023/12/12 09:49:44;;;;;;;;;;;;;;;;;;5004659;28;20332;-69
2023/12/12 09:52:09;;;;;;;;;;;;;;;;;;5001072;28;19939;-70
2023/12/12 09:54:36;;;;;;;;;;;;;;;;;;4996326;28;19949;-69
2023/12/12 09:57:01;;;;;;;;;;;;;;;;;;5003935;28;19921;-70
2023/12/12 09:59:27;;;;;;;;;;;;;;;;;;5003888;28;19982;-69
2023/12/12 10:01:52;;;;;;;;;;;;;;;;;;5017306;28;19971;-70
2023/12/12 10:04:18;;;;;;;;;;;;;;;;;;5000624;28;20066;-69
2023/12/12 10:06:44;;;;;;;;;;;;;;;;;;5005324;28;19951;-69
2023/12/12 10:09:09;;;;;;;;;;;;;;;;;;5017056;28;19937;-69
2023/12/12 10:11:35;;;;;;;;;;;;;;;;;;5002779;28;19952;-70
2023/12/12 10:14:00;;;;;;;;;;;;;;;;;;5013719;28;20611;-69
2023/12/12 10:16:26;;;;;;;;;;;;;;;;;;5017685;28;19932;-69
2023/12/12 10:18:52;;;;;;;;;;;;;;;;;;5017844;28;19921;-69
2023/12/12 10:21:18;;;;;;;;;;;;;;;;;;5018709;28;19948;-69
2023/12/12 10:23:44;;;;;;;;;;;;;;;;;;5018524;28;20463;-68
2023/12/12 10:26:09;;;;;;;;;;;;;;;;;;5034847;28;20241;-69
2023/12/12 10:28:35;;;;;;;;;;;;;;;;;;5031488;28;19933;-69
2023/12/12 10:31:01;;;;;;;;;;;;;;;;;;5017273;28;19929;-69
2023/12/12 10:33:26;;;;;;;;;;;;;;;;;;5016993;28;20516;-68
2023/12/12 10:35:52;;;;;;;;;;;;;;;;;;5000678;28;19918;-69
2023/12/12 10:38:17;;;;;;;;;;;;;;;;;;5001710;28;20096;-70
2023/12/12 10:40:42;;;;;;;;;;;;;;;;;;5032778;28;19986;-69
2023/12/12 10:43:08;;;;;;;;;;;;;;;;;;5031666;28;20297;-69
2023/12/12 10:45:33;;;;;;;;;;;;;;;;;;5017728;28;20377;-70
2023/12/12 10:47:59;;;;;;;;;;;;;;;;;;5005329;28;19917;-70
2023/12/12 10:50:24;;;;;;;;;;;;;;;;;;4998682;28;20344;-71
2023/12/12 10:52:50;;;;;;;;;;;;;;;;;;5001489;28;20428;-70
2023/12/12 10:55:15;;;;;;;;;;;;;;;;;;5015093;28;20087;-71
2023/12/12 10:57:42;;;;;;;;;;;;;;;;;;5017182;28;20197;-74
2023/12/12 11:00:11;;;;;;;;;;;;;;;;;;4999243;28;20373;-70
2023/12/12 11:02:36;;;;;;;;;;;;;;;;;;5015470;28;21917;-70
2023/12/12 11:05:02;;;;;;;;;;;;;;;;;;5001200;28;19921;-70
2023/12/12 11:07:27;;;;;;;;;;;;;;;;;;5015274;28;20019;-73
2023/12/12 11:09:55;;;;;;;;;;;;;;;;;;5016943;28;20644;-70
2023/12/12 11:12:20;;;;;;;;;;;;;;;;;;5017614;28;19925;-70
2023/12/12 11:14:46;;;;;;;;;;;;;;;;;;5015560;28;20376;-71
2023/12/12 11:17:12;;;;;;;;;;;;;;;;;;5018703;28;19921;-70
2023/12/12 11:19:37;;;;;;;;;;;;;;;;;;5012975;28;20307;-70
2023/12/12 11:22:05;;;;;;;;;;;;;;;;;;4999342;28;20012;-70
2023/12/12 11:24:31;;;;;;;;;;;;;;;;;;4997237;28;19927;-71
2023/12/12 11:26:56;;;;;;;;;;;;;;;;;;5000516;28;20176;-71
2023/12/12 11:29:24;;;;;;;;;;;;;;;;;;5016288;28;19921;-71
2023/12/12 11:34:44;;;;;;;;;;;;;;;;;;4999344;28;20160;-72
2023/12/12 11:37:12;;;;;;;;;;;;;;;;;;5014437;28;20000;-71
2023/12/12 11:39:39;;;;;;;;;;;;;;;;;;4995265;28;20819;-72
2023/12/12 11:42:04;;;;;;;;;;;;;;;;;;5018042;28;19917;-71
2023/12/12 11:44:29;;;;;;;;;;;;;;;;;;4998091;28;20179;-71
2023/12/12 11:47:00;;;;;;;;;;;;;;;;;;5000202;28;19918;-72
2023/12/12 11:49:25;;;;;;;;;;;;;;;;;;4999082;28;19967;-71
2023/12/12 11:51:52;;;;;;;;;;;;;;;;;;5014185;28;20368;-71
2023/12/12 11:54:20;;;;;;;;;;;;;;;;;;5032095;28;19925;-70
2023/12/12 11:56:48;;;;;;;;;;;;;;;;;;4999352;28;20339;-71
2023/12/12 11:59:13;;;;;;;;;;;;;;;;;;5015266;28;20031;-72
2023/12/12 12:01:41;;;;;;;;;;;;;;;;;;5015288;28;20381;-71
2023/12/12 12:04:06;;;;;;;;;;;;;;;;;;5000501;28;19921;-71
2023/12/12 12:06:32;;;;;;;;;;;;;;;;;;4999822;28;19952;-71
2023/12/12 12:09:02;;;;;;;;;;;;;;;;;;5015751;28;19928;-72
2023/12/12 12:11:28;;;;;;;;;;;;;;;;;;4995789;28;19928;-72
2023/12/12 12:13:53;;;;;;;;;;;;;;;;;;4998592;28;19921;-70
2023/12/12 12:16:21;;;;;;;;;;;;;;;;;;5013003;28;19925;-71
2023/12/12 12:18:47;;;;;;;;;;;;;;;;;;4999703;28;20384;-70
2023/12/12 12:21:12;;;;;;;;;;;;;;;;;;5014306;28;19940;-72
2023/12/12 12:23:38;;;;;;;;;;;;;;;;;;5000598;28;20069;-72
2023/12/12 12:26:04;;;;;;;;;;;;;;;;;;5000734;28;19925;-70
2023/12/12 12:28:29;;;;;;;;;;;;;;;;;;5000364;28;20530;-72
2023/12/12 12:30:58;;;;;;;;;;;;;;;;;;5015692;28;19917;-72
2023/12/12 12:33:28;;;;;;;;;;;;;;;;;;5013034;28;19928;-72
2023/12/12 12:35:57;;;;;;;;;;;;;;;;;;4998272;28;19921;-72
2023/12/12 12:38:22;;;;;;;;;;;;;;;;;;4994690;28;20431;-71
2023/12/12 12:40:47;;;;;;;;;;;;;;;;;;5014261;28;20523;-73
2023/12/12 12:43:13;;;;;;;;;;;;;;;;;;4998474;28;19921;-72
2023/12/12 12:45:41;;;;;;;;;;;;;;;;;;5032860;28;21572;-71
2023/12/12 12:48:06;;;;;;;;;;;;;;;;;;5033008;28;19917;-72
2023/12/12 12:50:32;;;;;;;;;;;;;;;;;;5016197;28;20323;-70
2023/12/12 12:53:02;;;;;;;;;;;;;;;;;;5018505;28;19917;-71
2023/12/12 12:55:27;;;;;;;;;;;;;;;;;;5029099;28;20222;-70
2023/12/12 12:57:53;;;;;;;;;;;;;;;;;;5001215;28;19972;-71
2023/12/12 13:00:40;;;;;;;;;;;;;;;;;;5005042;28;19921;-72
2023/12/12 13:03:31;;;;;;;;;;;;;;;;;;4998164;28;20427;-72
2023/12/12 13:05:56;;;;;;;;;;;;;;;;;;4999704;28;20019;-74
2023/12/12 13:08:21;;;;;;;;;;;;;;;;;;5001578;28;20380;-74
2023/12/12 13:10:47;;;;;;;;;;;;;;;;;;5014840;28;20491;-74
2023/12/12 13:13:12;;;;;;;;;;;;;;;;;;5018900;28;19928;-74
2023/12/12 13:15:38;;;;;;;;;;;;;;;;;;5013527;28;19925;-74
2023/12/12 13:18:03;;;;;;;;;;;;;;;;;;4997358;28;20567;-73
2023/12/12 13:20:29;;;;;;;;;;;;;;;;;;5032556;28;19924;-74
2023/12/12 13:22:54;;;;;;;;;;;;;;;;;;5001431;28;19928;-75
2023/12/12 13:25:19;;;;;;;;;;;;;;;;;;5014344;28;19925;-75
2023/12/12 13:27:48;;;;;;;;;;;;;;;;;;4993830;28;19964;-76
2023/12/12 13:30:13;;;;;;;;;;;;;;;;;;4993498;28;19921;-76
2023/12/12 13:32:41;;;;;;;;;;;;;;;;;;5014117;28;19924;-77
2023/12/12 13:35:07;;;;;;;;;;;;;;;;;;4995239;28;19922;-76
2023/12/12 13:37:35;;;;;;;;;;;;;;;;;;4996481;28;20008;-75
2023/12/12 13:40:00;;;;;;;;;;;;;;;;;;4999259;28;19917;-75
2023/12/12 13:42:25;;;;;;;;;;;;;;;;;;5016446;28;19975;-75
2023/12/12 13:44:51;;;;;;;;;;;;;;;;;;5016662;28;20019;-75
2023/12/12 13:47:16;;;;;;;;;;;;;;;;;;5002321;28;19922;-75
2023/12/12 13:49:45;;;;;;;;;;;;;;;;;;5015243;28;19928;-76
2023/12/12 13:52:10;;;;;;;;;;;;;;;;;;5004191;28;19971;-75
2023/12/12 13:54:36;;;;;;;;;;;;;;;;;;5016495;28;20285;-76
2023/12/12 13:57:02;;;;;;;;;;;;;;;;;;5001881;28;20301;-77
2023/12/12 13:59:27;;;;;;;;;;;;;;;;;;5018523;28;20525;-75
2023/12/12 14:01:52;;;;;;;;;;;;;;;;;;5002082;28;19918;-74
2023/12/12 14:04:19;;;;;;;;;;;;;;;;;;4998878;28;19999;-73
2023/12/12 14:06:44;;;;;;;;;;;;;;;;;;5004899;28;20242;-74
2023/12/12 14:09:09;;;;;;;;;;;;;;;;;;5016895;28;20375;-74
2023/12/12 14:11:38;;;;;;;;;;;;;;;;;;5019290;28;19922;-76
2023/12/12 14:14:03;;;;;;;;;;;;;;;;;;5005002;28;19988;-75
2023/12/12 14:16:29;;;;;;;;;;;;;;;;;;5001578;28;19921;-74
2023/12/12 14:18:55;;;;;;;;;;;;;;;;;;4999626;28;19928;-71
2023/12/12 14:21:20;;;;;;;;;;;;;;;;;;5031659;28;19988;-74
2023/12/12 14:23:45;;;;;;;;;;;;;;;;;;5014556;28;19990;-75
2023/12/12 14:26:11;;;;;;;;;;;;;;;;;;5032971;28;19920;-76
2023/12/12 14:28:37;;;;;;;;;;;;;;;;;;4999861;28;19982;-72
2023/12/12 14:31:02;;;;;;;;;;;;;;;;;;4986886;28;19917;-76
2023/12/12 14:33:28;;;;;;;;;;;;;;;;;;5012689;28;19917;-75
2023/12/12 14:35:53;;;;;;;;;;;;;;;;;;4996874;28;19927;-73
2023/12/12 14:38:18;;;;;;;;;;;;;;;;;;5013975;28;20412;-73
2023/12/12 14:40:47;;;;;;;;;;;;;;;;;;5014538;28;20012;-73
2023/12/12 14:43:12;;;;;;;;;;;;;;;;;;5002397;28;19921;-70
2023/12/12 14:45:38;;;;;;;;;;;;;;;;;;5001493;28;19925;-69
2023/12/12 14:48:03;;;;;;;;;;;;;;;;;;5030659;28;20635;-70
2023/12/12 14:50:28;;;;;;;;;;;;;;;;;;4999339;28;20364;-71
2023/12/12 14:52:54;;;;;;;;;;;;;;;;;;4996268;28;19921;-69
2023/12/12 14:55:21;;;;;;;;;;;;;;;;;;4999643;28;20256;-69
2023/12/12 14:57:46;;;;;;;;;;;;;;;;;;5001031;28;19965;-72
2023/12/12 15:00:15;;;;;;;;;;;;;;;;;;5000490;28;19917;-75
2023/12/12 15:02:42;;;;;;;;;;;;;;;;;;4999953;28;19928;-71
2023/12/12 15:05:08;;;;;;;;;;;;;;;;;;5015425;28;19921;-72
2023/12/12 15:07:33;;;;;;;;;;;;;;;;;;5001818;28;20396;-77
2023/12/12 15:09:59;;;;;;;;;;;;;;;;;;5003078;28;20332;-71
2023/12/12 15:12:25;;;;;;;;;;;;;;;;;;5013534;28;19953;-72
2023/12/12 15:14:50;;;;;;;;;;;;;;;;;;5013071;28;20467;-70
2023/12/12 15:17:16;;;;;;;;;;;;;;;;;;5012193;28;20382;-70
2023/12/12 15:19:41;;;;;;;;;;;;;;;;;;5031167;28;19990;-74
2023/12/12 15:22:09;;;;;;;;;;;;;;;;;;5016436;28;19922;-69
2023/12/12 15:24:35;;;;;;;;;;;;;;;;;;5014338;28;20088;-71
2023/12/12 15:27:00;;;;;;;;;;;;;;;;;;5006536;28;20216;-72
2023/12/12 15:29:25;;;;;;;;;;;;;;;;;;5029863;28;19917;-71
2023/12/12 15:31:54;;;;;;;;;;;;;;;;;;5005594;28;19918;-70
2023/12/12 15:34:22;;;;;;;;;;;;;;;;;;5003799;28;19924;-75
2023/12/12 15:36:50;;;;;;;;;;;;;;;;;;5011364;28;19929;-70
2023/12/12 15:39:16;;;;;;;;;;;;;;;;;;5030173;28;19913;-70
2023/12/12 15:41:42;;;;;;;;;;;;;;;;;;5029503;28;20372;-72
2023/12/12 15:44:13;;;;;;;;;;;;;;;;;;5012938;28;19921;-70
2023/12/12 15:46:38;;;;;;;;;;;;;;;;;;4999915;28;20048;-70
2023/12/12 15:49:06;;;;;;;;;;;;;;;;;;4996514;28;20484;-72
2023/12/12 15:51:32;;;;;;;;;;;;;;;;;;5014688;28;19913;-71
2023/12/12 15:53:57;;;;;;;;;;;;;;;;;;5000522;28;19987;-70
2023/12/12 15:56:23;;;;;;;;;;;;;;;;;;4999223;28;19921;-70
2023/12/12 15:58:52;;;;;;;;;;;;;;;;;;5000580;28;19923;-71
2023/12/12 16:01:18;;;;;;;;;;;;;;;;;;5012785;28;19921;-72
2023/12/12 16:03:50;;;;;;;;;;;;;;;;;;5013568;28;19921;-72
2023/12/12 16:06:16;;;;;;;;;;;;;;;;;;4998772;28;20416;-73
2023/12/12 16:08:43;;;;;;;;;;;;;;;;;;5013355;28;19922;-67
2023/12/12 16:11:11;;;;;;;;;;;;;;;;;;5015226;28;20160;-71
2023/12/12 16:13:40;;;;;;;;;;;;;;;;;;4994865;28;19917;-71
2023/12/12 16:16:06;;;;;;;;;;;;;;;;;;5014951;28;19924;-70
2023/12/12 16:18:31;;;;;;;;;;;;;;;;;;5012700;28;20023;-72
2023/12/12 16:20:57;;;;;;;;;;;;;;;;;;5012942;28;20067;-71
2023/12/12 16:23:25;;;;;;;;;;;;;;;;;;5014928;28;19944;-71
2023/12/12 16:25:50;;;;;;;;;;;;;;;;;;4988188;28;20182;-73
2023/12/12 16:28:16;;;;;;;;;;;;;;;;;;5033309;28;19917;-74
2023/12/12 16:30:41;;;;;;;;;;;;;;;;;;5003435;28;20019;-77
2023/12/12 16:33:10;;;;;;;;;;;;;;;;;;5014210;28;19979;-76
2023/12/12 16:35:35;;;;;;;;;;;;;;;;;;4996961;28;19918;-80
2023/12/12 16:38:01;;;;;;;;;;;;;;;;;;4996516;28;19928;-73
2023/12/12 16:40:26;;;;;;;;;;;;;;;;;;4999340;28;19921;-76
2023/12/12 16:42:51;;;;;;;;;;;;;;;;;;4993899;28;19924;-78
2023/12/12 16:45:17;;;;;;;;;;;;;;;;;;4997216;28;19936;-79
2023/12/12 16:47:44;;;;;;;;;;;;;;;;;;5014020;28;20385;-77
2023/12/12 16:50:12;;;;;;;;;;;;;;;;;;4998864;28;19928;-78